sensor_id;sensor_type;location;lat;lon;timestamp;temperature;humidity
20459;DHT22;10388;52.314;7.938;2022-12-29T00:01:46;8.80;99.90
20459;DHT22;10388;52.314;7.938;2022-12-29T00:04:19;8.80;99.90
20459;DHT22;10388;52.314;7.938;2022-12-29T00:06:50;8.80;99.90
20459;DHT22;10388;52.314;7.938;2022-12-29T00:09:22;8.80;99.90
20459;DHT22;10388;52.314;7.938;2022-12-29T00:11:52;8.80;99.90
20459;DHT22;10388;52.314;7.938;2022-12-29T00:14:23;8.90;99.90
20459;DHT22;10388;52.314;7.938;2022-12-29T00:17:13;8.90;99.90
20459;DHT22;10388;52.314;7.938;2022-12-29T00:19:43;9.00;99.90
20459;DHT22;10388;52.314;7.938;2022-12-29T00:22:32;9.00;99.90
20459;DHT22;10388;52.314;7.938;2022-12-29T00:25:21;9.00;99.90
20459;DHT22;10388;52.314;7.938;2022-12-29T00:28:10;9.00;99.90
20459;DHT22;10388;52.314;7.938;2022-12-29T00:31:00;9.00;99.90
20459;DHT22;10388;52.314;7.938;2022-12-29T00:33:50;9.10;99.90
20459;DHT22;10388;52.314;7.938;2022-12-29T00:36:42;9.10;99.90
20459;DHT22;10388;52.314;7.938;2022-12-29T00:39:16;9.20;99.90
20459;DHT22;10388;52.314;7.938;2022-12-29T00:42:08;9.20;99.90
20459;DHT22;10388;52.314;7.938;2022-12-29T00:44:57;9.20;99.90
20459;DHT22;10388;52.314;7.938;2022-12-29T00:47:28;9.20;99.90
20459;DHT22;10388;52.314;7.938;2022-12-29T00:49:58;9.20;99.90
20459;DHT22;10388;52.314;7.938;2022-12-29T00:52:29;9.30;99.90
20459;DHT22;10388;52.314;7.938;2022-12-29T00:54:59;9.30;99.90
20459;DHT22;10388;52.314;7.938;2022-12-29T00:57:30;9.30;99.90
20459;DHT22;10388;52.314;7.938;2022-12-29T01:00:00;9.30;99.90
20459;DHT22;10388;52.314;7.938;2022-12-29T03:19:34;9.50;99.90
20459;DHT22;10388;52.314;7.938;2022-12-29T03:22:12;9.50;99.90
20459;DHT22;10388;52.314;7.938;2022-12-29T03:25:10;9.60;99.90
20459;DHT22;10388;52.314;7.938;2022-12-29T03:27:49;9.50;99.90
20459;DHT22;10388;52.314;7.938;2022-12-29T03:30:21;9.50;99.90
20459;DHT22;10388;52.314;7.938;2022-12-29T03:32:56;9.50;99.90
20459;DHT22;10388;52.314;7.938;2022-12-29T03:35:32;9.50;99.90
20459;DHT22;10388;52.314;7.938;2022-12-29T03:38:27;9.60;99.90
20459;DHT22;10388;52.314;7.938;2022-12-29T03:41:03;9.50;99.90
20459;DHT22;10388;52.314;7.938;2022-12-29T03:43:34;9.60;99.90
20459;DHT22;10388;52.314;7.938;2022-12-29T03:46:05;9.50;99.90
20459;DHT22;10388;52.314;7.938;2022-12-29T03:48:36;9.50;99.90
20459;DHT22;10388;52.314;7.938;2022-12-29T03:51:06;9.60;99.90
20459;DHT22;10388;52.314;7.938;2022-12-29T03:53:37;9.60;99.90
20459;DHT22;10388;52.314;7.938;2022-12-29T03:56:07;9.60;99.90
20459;DHT22;10388;52.314;7.938;2022-12-29T03:58:38;9.60;99.90
20459;DHT22;10388;52.314;7.938;2022-12-29T04:01:08;9.60;99.90
20459;DHT22;10388;52.314;7.938;2022-12-29T04:03:39;9.60;99.90
20459;DHT22;10388;52.314;7.938;2022-12-29T04:06:09;9.60;99.90
20459;DHT22;10388;52.314;7.938;2022-12-29T04:08:40;9.60;99.90
20459;DHT22;10388;52.314;7.938;2022-12-29T04:11:10;9.70;99.90
20459;DHT22;10388;52.314;7.938;2022-12-29T04:13:41;9.70;99.90
20459;DHT22;10388;52.314;7.938;2022-12-29T04:16:11;9.80;99.90
20459;DHT22;10388;52.314;7.938;2022-12-29T04:18:42;9.80;99.90
20459;DHT22;10388;52.314;7.938;2022-12-29T04:21:13;9.80;99.90
20459;DHT22;10388;52.314;7.938;2022-12-29T04:23:43;9.80;99.90
20459;DHT22;10388;52.314;7.938;2022-12-29T04:26:14;9.80;99.90
20459;DHT22;10388;52.314;7.938;2022-12-29T04:28:44;9.80;99.90
20459;DHT22;10388;52.314;7.938;2022-12-29T04:31:15;9.80;99.90
20459;DHT22;10388;52.314;7.938;2022-12-29T04:33:45;9.90;99.90
20459;DHT22;10388;52.314;7.938;2022-12-29T04:36:16;9.80;99.90
20459;DHT22;10388;52.314;7.938;2022-12-29T04:38:47;9.80;99.90
20459;DHT22;10388;52.314;7.938;2022-12-29T04:41:24;9.90;99.90
20459;DHT22;10388;52.314;7.938;2022-12-29T04:43:55;9.90;99.90
20459;DHT22;10388;52.314;7.938;2022-12-29T04:46:25;9.90;99.90
20459;DHT22;10388;52.314;7.938;2022-12-29T04:48:56;9.90;99.90
20459;DHT22;10388;52.314;7.938;2022-12-29T04:51:26;9.90;99.90
20459;DHT22;10388;52.314;7.938;2022-12-29T04:53:57;9.90;99.90
20459;DHT22;10388;52.314;7.938;2022-12-29T04:56:27;9.90;99.90
20459;DHT22;10388;52.314;7.938;2022-12-29T04:58:58;9.90;99.90
20459;DHT22;10388;52.314;7.938;2022-12-29T05:01:28;10.00;99.90
20459;DHT22;10388;52.314;7.938;2022-12-29T05:03:59;10.00;99.90
20459;DHT22;10388;52.314;7.938;2022-12-29T05:06:29;10.00;99.90
20459;DHT22;10388;52.314;7.938;2022-12-29T05:09:00;9.90;99.90
20459;DHT22;10388;52.314;7.938;2022-12-29T05:11:30;9.90;99.90
20459;DHT22;10388;52.314;7.938;2022-12-29T05:14:01;9.80;99.90
20459;DHT22;10388;52.314;7.938;2022-12-29T05:16:31;9.80;99.90
20459;DHT22;10388;52.314;7.938;2022-12-29T05:19:02;9.80;99.90
20459;DHT22;10388;52.314;7.938;2022-12-29T05:21:32;9.80;99.90
20459;DHT22;10388;52.314;7.938;2022-12-29T05:24:03;9.80;99.90
20459;DHT22;10388;52.314;7.938;2022-12-29T05:26:34;9.70;99.90
20459;DHT22;10388;52.314;7.938;2022-12-29T05:29:04;9.60;99.90
20459;DHT22;10388;52.314;7.938;2022-12-29T05:31:35;9.60;99.90
20459;DHT22;10388;52.314;7.938;2022-12-29T05:34:06;9.50;99.90
20459;DHT22;10388;52.314;7.938;2022-12-29T05:36:36;9.50;99.90
20459;DHT22;10388;52.314;7.938;2022-12-29T05:39:07;9.50;99.90
20459;DHT22;10388;52.314;7.938;2022-12-29T05:41:40;9.50;99.90
20459;DHT22;10388;52.314;7.938;2022-12-29T05:44:11;9.50;99.90
20459;DHT22;10388;52.314;7.938;2022-12-29T05:46:42;9.40;99.90
20459;DHT22;10388;52.314;7.938;2022-12-29T05:49:12;9.40;99.90
20459;DHT22;10388;52.314;7.938;2022-12-29T05:51:43;9.30;99.90
20459;DHT22;10388;52.314;7.938;2022-12-29T05:54:13;9.40;99.90
20459;DHT22;10388;52.314;7.938;2022-12-29T05:56:44;9.30;99.90
20459;DHT22;10388;52.314;7.938;2022-12-29T05:59:14;9.30;99.90
20459;DHT22;10388;52.314;7.938;2022-12-29T06:01:45;9.30;99.90
20459;DHT22;10388;52.314;7.938;2022-12-29T06:04:15;9.30;99.90
20459;DHT22;10388;52.314;7.938;2022-12-29T06:06:47;9.20;99.90
20459;DHT22;10388;52.314;7.938;2022-12-29T06:09:17;9.20;99.90
20459;DHT22;10388;52.314;7.938;2022-12-29T06:11:48;9.20;99.90
20459;DHT22;10388;52.314;7.938;2022-12-29T06:14:18;9.20;99.90
20459;DHT22;10388;52.314;7.938;2022-12-29T06:16:49;9.10;99.90
20459;DHT22;10388;52.314;7.938;2022-12-29T06:19:19;9.10;99.90
20459;DHT22;10388;52.314;7.938;2022-12-29T06:21:50;9.00;99.90
20459;DHT22;10388;52.314;7.938;2022-12-29T06:24:22;9.00;99.90
20459;DHT22;10388;52.314;7.938;2022-12-29T06:26:53;9.00;99.90
20459;DHT22;10388;52.314;7.938;2022-12-29T06:29:23;8.90;99.90
20459;DHT22;10388;52.314;7.938;2022-12-29T06:31:54;8.90;99.90
20459;DHT22;10388;52.314;7.938;2022-12-29T06:34:28;8.90;99.90
20459;DHT22;10388;52.314;7.938;2022-12-29T06:36:58;8.90;99.90
20459;DHT22;10388;52.314;7.938;2022-12-29T06:39:29;8.90;99.90
20459;DHT22;10388;52.314;7.938;2022-12-29T06:42:00;8.90;99.90
20459;DHT22;10388;52.314;7.938;2022-12-29T06:44:30;8.90;99.90
20459;DHT22;10388;52.314;7.938;2022-12-29T06:47:01;8.90;99.90
20459;DHT22;10388;52.314;7.938;2022-12-29T06:49:31;8.80;99.90
20459;DHT22;10388;52.314;7.938;2022-12-29T06:52:02;8.80;99.90
20459;DHT22;10388;52.314;7.938;2022-12-29T06:54:34;8.80;99.90
20459;DHT22;10388;52.314;7.938;2022-12-29T06:57:05;8.90;99.90
20459;DHT22;10388;52.314;7.938;2022-12-29T06:59:35;8.90;99.90
20459;DHT22;10388;52.314;7.938;2022-12-29T07:02:06;8.90;99.90
20459;DHT22;10388;52.314;7.938;2022-12-29T07:04:36;9.00;99.90
20459;DHT22;10388;52.314;7.938;2022-12-29T07:07:07;8.90;99.90
20459;DHT22;10388;52.314;7.938;2022-12-29T07:09:37;8.90;99.90
20459;DHT22;10388;52.314;7.938;2022-12-29T07:12:08;8.90;99.90
20459;DHT22;10388;52.314;7.938;2022-12-29T07:14:38;8.90;99.90
20459;DHT22;10388;52.314;7.938;2022-12-29T07:17:09;8.90;99.90
20459;DHT22;10388;52.314;7.938;2022-12-29T07:19:40;8.90;99.90
20459;DHT22;10388;52.314;7.938;2022-12-29T07:22:10;8.90;99.90
20459;DHT22;10388;52.314;7.938;2022-12-29T07:24:41;8.80;99.90
20459;DHT22;10388;52.314;7.938;2022-12-29T07:27:13;8.70;99.90
20459;DHT22;10388;52.314;7.938;2022-12-29T07:29:43;8.70;99.90
20459;DHT22;10388;52.314;7.938;2022-12-29T07:32:14;8.70;99.90
20459;DHT22;10388;52.314;7.938;2022-12-29T07:34:45;8.60;99.90
20459;DHT22;10388;52.314;7.938;2022-12-29T07:37:17;8.50;99.90
20459;DHT22;10388;52.314;7.938;2022-12-29T07:39:48;8.50;99.90
20459;DHT22;10388;52.314;7.938;2022-12-29T07:42:18;8.50;99.90
20459;DHT22;10388;52.314;7.938;2022-12-29T07:44:49;8.50;99.90
20459;DHT22;10388;52.314;7.938;2022-12-29T07:47:19;8.50;99.90
20459;DHT22;10388;52.314;7.938;2022-12-29T07:49:50;8.40;99.90
20459;DHT22;10388;52.314;7.938;2022-12-29T07:52:20;8.40;99.90
20459;DHT22;10388;52.314;7.938;2022-12-29T07:54:51;8.40;99.90
20459;DHT22;10388;52.314;7.938;2022-12-29T07:57:25;8.30;99.90
20459;DHT22;10388;52.314;7.938;2022-12-29T07:59:55;8.30;99.90
20459;DHT22;10388;52.314;7.938;2022-12-29T08:02:26;8.30;99.90
20459;DHT22;10388;52.314;7.938;2022-12-29T08:04:56;8.30;99.90
20459;DHT22;10388;52.314;7.938;2022-12-29T08:07:27;8.20;99.90
20459;DHT22;10388;52.314;7.938;2022-12-29T08:09:57;8.20;99.90
20459;DHT22;10388;52.314;7.938;2022-12-29T08:12:28;8.30;99.90
20459;DHT22;10388;52.314;7.938;2022-12-29T08:14:59;8.30;99.90
20459;DHT22;10388;52.314;7.938;2022-12-29T08:17:29;8.30;99.90
20459;DHT22;10388;52.314;7.938;2022-12-29T08:20:00;8.30;99.90
20459;DHT22;10388;52.314;7.938;2022-12-29T08:22:30;8.40;99.90
20459;DHT22;10388;52.314;7.938;2022-12-29T08:25:01;8.30;99.90
20459;DHT22;10388;52.314;7.938;2022-12-29T08:27:32;8.40;99.90
20459;DHT22;10388;52.314;7.938;2022-12-29T08:30:03;8.50;99.90
20459;DHT22;10388;52.314;7.938;2022-12-29T08:32:33;8.50;99.90
20459;DHT22;10388;52.314;7.938;2022-12-29T08:35:04;8.50;99.90
20459;DHT22;10388;52.314;7.938;2022-12-29T08:37:35;8.60;99.90
20459;DHT22;10388;52.314;7.938;2022-12-29T08:40:06;8.60;99.90
20459;DHT22;10388;52.314;7.938;2022-12-29T08:42:36;8.60;99.90
20459;DHT22;10388;52.314;7.938;2022-12-29T08:45:07;8.60;99.90
20459;DHT22;10388;52.314;7.938;2022-12-29T08:47:39;8.70;99.90
20459;DHT22;10388;52.314;7.938;2022-12-29T08:50:09;8.80;99.90
20459;DHT22;10388;52.314;7.938;2022-12-29T08:52:40;8.80;99.90
20459;DHT22;10388;52.314;7.938;2022-12-29T08:55:10;8.90;99.90
20459;DHT22;10388;52.314;7.938;2022-12-29T08:57:41;8.90;99.90
20459;DHT22;10388;52.314;7.938;2022-12-29T09:00:11;8.90;99.90
20459;DHT22;10388;52.314;7.938;2022-12-29T09:02:42;9.00;99.90
20459;DHT22;10388;52.314;7.938;2022-12-29T09:05:13;9.10;99.90
20459;DHT22;10388;52.314;7.938;2022-12-29T09:07:43;9.20;99.90
20459;DHT22;10388;52.314;7.938;2022-12-29T09:10:14;9.30;99.90
20459;DHT22;10388;52.314;7.938;2022-12-29T09:12:44;9.20;99.90
20459;DHT22;10388;52.314;7.938;2022-12-29T09:15:15;9.20;99.90
20459;DHT22;10388;52.314;7.938;2022-12-29T09:17:46;9.20;99.90
20459;DHT22;10388;52.314;7.938;2022-12-29T09:20:18;9.10;99.90
20459;DHT22;10388;52.314;7.938;2022-12-29T09:22:49;9.20;99.90
20459;DHT22;10388;52.314;7.938;2022-12-29T09:25:20;9.20;99.90
20459;DHT22;10388;52.314;7.938;2022-12-29T09:27:52;9.20;99.90
20459;DHT22;10388;52.314;7.938;2022-12-29T09:30:23;9.20;99.90
20459;DHT22;10388;52.314;7.938;2022-12-29T09:32:54;9.40;99.90
20459;DHT22;10388;52.314;7.938;2022-12-29T09:35:24;9.50;99.90
20459;DHT22;10388;52.314;7.938;2022-12-29T09:37:55;9.60;99.90
20459;DHT22;10388;52.314;7.938;2022-12-29T09:40:31;9.70;99.90
20459;DHT22;10388;52.314;7.938;2022-12-29T09:46:40;9.70;99.90
20459;DHT22;10388;52.314;7.938;2022-12-29T09:51:56;9.80;99.90
20459;DHT22;10388;52.314;7.938;2022-12-29T09:54:45;9.60;99.90
20459;DHT22;10388;52.314;7.938;2022-12-29T09:57:26;9.60;99.90
20459;DHT22;10388;52.314;7.938;2022-12-29T10:00:11;9.60;99.90
20459;DHT22;10388;52.314;7.938;2022-12-29T10:02:54;9.70;99.90
20459;DHT22;10388;52.314;7.938;2022-12-29T10:08:34;9.90;99.90
20459;DHT22;10388;52.314;7.938;2022-12-29T10:17:00;9.80;99.90
20459;DHT22;10388;52.314;7.938;2022-12-29T10:22:48;9.90;99.90
20459;DHT22;10388;52.314;7.938;2022-12-29T10:25:25;10.00;99.90
20459;DHT22;10388;52.314;7.938;2022-12-29T10:27:59;10.00;99.90
20459;DHT22;10388;52.314;7.938;2022-12-29T10:30:33;10.00;99.90
20459;DHT22;10388;52.314;7.938;2022-12-29T10:33:07;10.10;99.90
20459;DHT22;10388;52.314;7.938;2022-12-29T10:35:40;10.20;99.90
20459;DHT22;10388;52.314;7.938;2022-12-29T10:38:37;10.30;99.90
20459;DHT22;10388;52.314;7.938;2022-12-29T10:41:15;10.30;99.90
20459;DHT22;10388;52.314;7.938;2022-12-29T10:43:49;10.20;99.90
20459;DHT22;10388;52.314;7.938;2022-12-29T10:46:23;10.10;99.90
20459;DHT22;10388;52.314;7.938;2022-12-29T10:48:55;10.10;99.90
20459;DHT22;10388;52.314;7.938;2022-12-29T10:51:38;10.20;99.90
20459;DHT22;10388;52.314;7.938;2022-12-29T10:57:31;10.10;99.90
20459;DHT22;10388;52.314;7.938;2022-12-29T11:00:11;10.20;99.90
20459;DHT22;10388;52.314;7.938;2022-12-29T11:03:23;10.20;99.90
20459;DHT22;10388;52.314;7.938;2022-12-29T11:06:24;10.20;99.90
20459;DHT22;10388;52.314;7.938;2022-12-29T11:09:02;10.10;99.90
20459;DHT22;10388;52.314;7.938;2022-12-29T11:11:38;10.10;99.90
20459;DHT22;10388;52.314;7.938;2022-12-29T11:16:39;10.00;99.90
20459;DHT22;10388;52.314;7.938;2022-12-29T11:19:26;10.00;99.90
20459;DHT22;10388;52.314;7.938;2022-12-29T11:22:24;10.00;99.90
20459;DHT22;10388;52.314;7.938;2022-12-29T11:25:06;10.00;99.90
20459;DHT22;10388;52.314;7.938;2022-12-29T11:27:55;10.00;99.90
20459;DHT22;10388;52.314;7.938;2022-12-29T11:30:31;10.10;99.90
20459;DHT22;10388;52.314;7.938;2022-12-29T11:33:03;10.10;99.90
20459;DHT22;10388;52.314;7.938;2022-12-29T11:35:35;10.10;99.90
20459;DHT22;10388;52.314;7.938;2022-12-29T11:38:20;10.20;99.90
20459;DHT22;10388;52.314;7.938;2022-12-29T11:40:52;10.30;99.90
20459;DHT22;10388;52.314;7.938;2022-12-29T11:43:38;10.30;99.90
20459;DHT22;10388;52.314;7.938;2022-12-29T11:46:16;10.30;99.90
20459;DHT22;10388;52.314;7.938;2022-12-29T11:48:48;10.20;99.90
20459;DHT22;10388;52.314;7.938;2022-12-29T11:51:34;10.20;99.90
20459;DHT22;10388;52.314;7.938;2022-12-29T11:54:18;10.20;99.90
20459;DHT22;10388;52.314;7.938;2022-12-29T11:56:50;10.10;99.90
20459;DHT22;10388;52.314;7.938;2022-12-29T11:59:36;10.10;99.90
20459;DHT22;10388;52.314;7.938;2022-12-29T12:04:51;10.10;99.90
20459;DHT22;10388;52.314;7.938;2022-12-29T12:07:45;10.10;99.90
20459;DHT22;10388;52.314;7.938;2022-12-29T12:10:23;10.10;99.90
20459;DHT22;10388;52.314;7.938;2022-12-29T12:13:03;10.00;99.90
20459;DHT22;10388;52.314;7.938;2022-12-29T12:15:49;10.00;99.90
20459;DHT22;10388;52.314;7.938;2022-12-29T12:21:06;10.00;99.90
20459;DHT22;10388;52.314;7.938;2022-12-29T12:26:55;10.00;99.90
20459;DHT22;10388;52.314;7.938;2022-12-29T12:29:41;10.00;99.90
20459;DHT22;10388;52.314;7.938;2022-12-29T12:32:19;9.90;99.90
20459;DHT22;10388;52.314;7.938;2022-12-29T12:34:51;9.80;99.90
20459;DHT22;10388;52.314;7.938;2022-12-29T12:40:31;9.70;99.90
20459;DHT22;10388;52.314;7.938;2022-12-29T12:43:27;9.60;99.90
20459;DHT22;10388;52.314;7.938;2022-12-29T12:52:10;9.70;99.90
20459;DHT22;10388;52.314;7.938;2022-12-29T12:55:18;9.70;99.90
20459;DHT22;10388;52.314;7.938;2022-12-29T12:58:04;9.70;99.90
20459;DHT22;10388;52.314;7.938;2022-12-29T13:09:58;9.70;99.90
20459;DHT22;10388;52.314;7.938;2022-12-29T13:15:20;9.70;99.90
20459;DHT22;10388;52.314;7.938;2022-12-29T13:18:04;9.70;99.90
20459;DHT22;10388;52.314;7.938;2022-12-29T13:20:54;9.70;99.90
20459;DHT22;10388;52.314;7.938;2022-12-29T13:23:49;9.70;99.90
20459;DHT22;10388;52.314;7.938;2022-12-29T13:26:35;9.60;99.90
20459;DHT22;10388;52.314;7.938;2022-12-29T13:29:41;9.70;99.90
20459;DHT22;10388;52.314;7.938;2022-12-29T13:35:18;9.80;99.90
20459;DHT22;10388;52.314;7.938;2022-12-29T13:40:48;9.70;99.90
20459;DHT22;10388;52.314;7.938;2022-12-29T13:43:20;9.70;99.90
20459;DHT22;10388;52.314;7.938;2022-12-29T13:46:04;9.70;99.90
20459;DHT22;10388;52.314;7.938;2022-12-29T13:51:28;9.70;99.90
20459;DHT22;10388;52.314;7.938;2022-12-29T13:54:18;9.70;99.90
20459;DHT22;10388;52.314;7.938;2022-12-29T13:57:10;9.70;99.90
20459;DHT22;10388;52.314;7.938;2022-12-29T13:59:50;9.70;99.90
20459;DHT22;10388;52.314;7.938;2022-12-29T14:02:27;9.60;99.90
20459;DHT22;10388;52.314;7.938;2022-12-29T14:08:04;9.60;99.90
20459;DHT22;10388;52.314;7.938;2022-12-29T14:10:37;9.60;99.90
20459;DHT22;10388;52.314;7.938;2022-12-29T14:13:18;9.60;99.90
20459;DHT22;10388;52.314;7.938;2022-12-29T14:15:55;9.70;99.90
20459;DHT22;10388;52.314;7.938;2022-12-29T14:18:30;9.60;99.90
20459;DHT22;10388;52.314;7.938;2022-12-29T14:21:17;9.60;99.90
20459;DHT22;10388;52.314;7.938;2022-12-29T14:23:50;9.50;99.90
20459;DHT22;10388;52.314;7.938;2022-12-29T14:26:34;9.50;99.90
20459;DHT22;10388;52.314;7.938;2022-12-29T14:31:54;9.50;99.90
20459;DHT22;10388;52.314;7.938;2022-12-29T14:34:30;9.50;99.90
20459;DHT22;10388;52.314;7.938;2022-12-29T14:37:02;9.40;99.90
20459;DHT22;10388;52.314;7.938;2022-12-29T14:39:41;9.50;99.90
20459;DHT22;10388;52.314;7.938;2022-12-29T14:42:15;9.40;99.90
20459;DHT22;10388;52.314;7.938;2022-12-29T14:45:41;9.40;99.90
20459;DHT22;10388;52.314;7.938;2022-12-29T14:47:53;9.30;99.90
20459;DHT22;10388;52.314;7.938;2022-12-29T14:50:36;9.30;99.90
20459;DHT22;10388;52.314;7.938;2022-12-29T14:53:44;9.30;99.90
20459;DHT22;10388;52.314;7.938;2022-12-29T14:56:17;9.30;99.90
20459;DHT22;10388;52.314;7.938;2022-12-29T14:58:54;9.30;99.90
20459;DHT22;10388;52.314;7.938;2022-12-29T15:01:39;9.30;99.90
20459;DHT22;10388;52.314;7.938;2022-12-29T15:04:17;9.20;99.90
20459;DHT22;10388;52.314;7.938;2022-12-29T15:06:50;9.20;99.90
20459;DHT22;10388;52.314;7.938;2022-12-29T15:09:31;9.20;99.90
20459;DHT22;10388;52.314;7.938;2022-12-29T15:12:29;9.20;99.90
20459;DHT22;10388;52.314;7.938;2022-12-29T15:15:10;9.10;99.90
20459;DHT22;10388;52.314;7.938;2022-12-29T15:17:43;9.10;99.90
20459;DHT22;10388;52.314;7.938;2022-12-29T15:20:23;9.10;99.90
20459;DHT22;10388;52.314;7.938;2022-12-29T15:22:57;9.20;99.90
20459;DHT22;10388;52.314;7.938;2022-12-29T15:25:28;9.10;99.90
20459;DHT22;10388;52.314;7.938;2022-12-29T15:28:04;9.10;99.90
20459;DHT22;10388;52.314;7.938;2022-12-29T15:30:56;9.10;99.90
20459;DHT22;10388;52.314;7.938;2022-12-29T15:33:27;9.10;99.90
20459;DHT22;10388;52.314;7.938;2022-12-29T15:36:03;9.00;99.90
20459;DHT22;10388;52.314;7.938;2022-12-29T15:38:40;9.10;99.90
20459;DHT22;10388;52.314;7.938;2022-12-29T15:41:26;9.00;99.90
20459;DHT22;10388;52.314;7.938;2022-12-29T15:44:17;9.00;99.90
20459;DHT22;10388;52.314;7.938;2022-12-29T15:46:50;8.90;99.90
20459;DHT22;10388;52.314;7.938;2022-12-29T15:49:21;8.90;99.90
20459;DHT22;10388;52.314;7.938;2022-12-29T15:51:54;8.90;99.90
20459;DHT22;10388;52.314;7.938;2022-12-29T15:54:27;9.00;99.90
20459;DHT22;10388;52.314;7.938;2022-12-29T15:57:00;9.00;99.90
20459;DHT22;10388;52.314;7.938;2022-12-29T15:59:33;9.00;99.90
20459;DHT22;10388;52.314;7.938;2022-12-29T16:02:09;8.90;99.90
20459;DHT22;10388;52.314;7.938;2022-12-29T16:04:40;9.00;99.90
20459;DHT22;10388;52.314;7.938;2022-12-29T16:09:59;8.80;99.90
20459;DHT22;10388;52.314;7.938;2022-12-29T16:12:33;8.60;99.90
20459;DHT22;10388;52.314;7.938;2022-12-29T16:15:07;8.50;99.90
20459;DHT22;10388;52.314;7.938;2022-12-29T16:17:47;8.50;99.90
20459;DHT22;10388;52.314;7.938;2022-12-29T16:20:21;8.40;99.90
20459;DHT22;10388;52.314;7.938;2022-12-29T16:22:58;8.40;99.90
20459;DHT22;10388;52.314;7.938;2022-12-29T16:25:33;8.30;99.90
20459;DHT22;10388;52.314;7.938;2022-12-29T16:28:17;8.30;99.90
20459;DHT22;10388;52.314;7.938;2022-12-29T16:31:05;8.20;99.90
20459;DHT22;10388;52.314;7.938;2022-12-29T16:33:45;8.30;99.90
20459;DHT22;10388;52.314;7.938;2022-12-29T16:36:41;8.20;99.90
20459;DHT22;10388;52.314;7.938;2022-12-29T16:39:38;8.10;99.90
20459;DHT22;10388;52.314;7.938;2022-12-29T16:48:10;8.10;99.90
20459;DHT22;10388;52.314;7.938;2022-12-29T16:50:48;8.10;99.90
20459;DHT22;10388;52.314;7.938;2022-12-29T16:53:27;8.00;99.90
20459;DHT22;10388;52.314;7.938;2022-12-29T16:56:03;8.00;99.90
20459;DHT22;10388;52.314;7.938;2022-12-29T16:58:35;7.90;99.90
20459;DHT22;10388;52.314;7.938;2022-12-29T17:01:06;7.90;99.90
20459;DHT22;10388;52.314;7.938;2022-12-29T17:03:49;7.90;99.90
20459;DHT22;10388;52.314;7.938;2022-12-29T17:06:22;7.90;99.90
20459;DHT22;10388;52.314;7.938;2022-12-29T17:08:53;7.90;99.90
20459;DHT22;10388;52.314;7.938;2022-12-29T17:11:29;8.00;99.90
20459;DHT22;10388;52.314;7.938;2022-12-29T17:16:50;7.90;99.90
20459;DHT22;10388;52.314;7.938;2022-12-29T17:19:32;7.90;99.90
20459;DHT22;10388;52.314;7.938;2022-12-29T17:22:09;7.90;99.90
20459;DHT22;10388;52.314;7.938;2022-12-29T17:24:42;7.90;99.90
20459;DHT22;10388;52.314;7.938;2022-12-29T17:30:11;7.90;99.90
20459;DHT22;10388;52.314;7.938;2022-12-29T17:32:48;8.00;99.90
20459;DHT22;10388;52.314;7.938;2022-12-29T17:35:21;7.90;99.90
20459;DHT22;10388;52.314;7.938;2022-12-29T17:37:52;7.90;99.90
20459;DHT22;10388;52.314;7.938;2022-12-29T17:40:28;7.90;99.90
20459;DHT22;10388;52.314;7.938;2022-12-29T17:42:59;7.90;99.90
20459;DHT22;10388;52.314;7.938;2022-12-29T17:45:31;7.90;99.90
20459;DHT22;10388;52.314;7.938;2022-12-29T17:48:02;7.90;99.90
20459;DHT22;10388;52.314;7.938;2022-12-29T17:50:32;7.80;99.90
20459;DHT22;10388;52.314;7.938;2022-12-29T17:53:05;7.90;99.90
20459;DHT22;10388;52.314;7.938;2022-12-29T17:55:36;7.80;99.90
20459;DHT22;10388;52.314;7.938;2022-12-29T17:58:23;7.80;99.90
20459;DHT22;10388;52.314;7.938;2022-12-29T18:00:57;7.80;99.90
20459;DHT22;10388;52.314;7.938;2022-12-29T18:03:33;7.80;99.90
20459;DHT22;10388;52.314;7.938;2022-12-29T18:06:06;7.80;99.90
20459;DHT22;10388;52.314;7.938;2022-12-29T18:08:39;7.80;99.90
20459;DHT22;10388;52.314;7.938;2022-12-29T18:11:26;7.70;99.90
20459;DHT22;10388;52.314;7.938;2022-12-29T18:13:56;7.70;99.90
20459;DHT22;10388;52.314;7.938;2022-12-29T18:16:27;7.70;99.90
20459;DHT22;10388;52.314;7.938;2022-12-29T18:18:57;7.80;99.90
20459;DHT22;10388;52.314;7.938;2022-12-29T18:21:28;7.80;99.90
20459;DHT22;10388;52.314;7.938;2022-12-29T18:23:59;7.80;99.90
20459;DHT22;10388;52.314;7.938;2022-12-29T18:26:30;7.80;99.90
20459;DHT22;10388;52.314;7.938;2022-12-29T18:29:02;7.80;99.90
20459;DHT22;10388;52.314;7.938;2022-12-29T18:31:33;7.80;99.90
20459;DHT22;10388;52.314;7.938;2022-12-29T18:34:18;7.90;99.90
20459;DHT22;10388;52.314;7.938;2022-12-29T18:36:49;7.80;99.90
20459;DHT22;10388;52.314;7.938;2022-12-29T18:39:21;7.80;99.90
20459;DHT22;10388;52.314;7.938;2022-12-29T18:41:51;7.80;99.90
20459;DHT22;10388;52.314;7.938;2022-12-29T18:44:22;7.80;99.90
20459;DHT22;10388;52.314;7.938;2022-12-29T18:46:54;7.80;99.90
20459;DHT22;10388;52.314;7.938;2022-12-29T18:49:24;7.90;99.90
20459;DHT22;10388;52.314;7.938;2022-12-29T18:51:55;7.90;99.90
20459;DHT22;10388;52.314;7.938;2022-12-29T18:54:31;7.90;99.90
20459;DHT22;10388;52.314;7.938;2022-12-29T18:57:01;8.00;99.90
20459;DHT22;10388;52.314;7.938;2022-12-29T18:59:32;8.00;99.90
20459;DHT22;10388;52.314;7.938;2022-12-29T19:02:02;7.90;99.90
20459;DHT22;10388;52.314;7.938;2022-12-29T19:04:33;8.00;99.90
20459;DHT22;10388;52.314;7.938;2022-12-29T19:07:03;7.90;99.90
20459;DHT22;10388;52.314;7.938;2022-12-29T19:09:34;7.90;99.90
20459;DHT22;10388;52.314;7.938;2022-12-29T19:12:04;7.80;99.90
20459;DHT22;10388;52.314;7.938;2022-12-29T19:14:35;7.80;99.90
20459;DHT22;10388;52.314;7.938;2022-12-29T19:17:12;7.80;99.90
20459;DHT22;10388;52.314;7.938;2022-12-29T19:19:42;7.70;99.90
20459;DHT22;10388;52.314;7.938;2022-12-29T19:22:13;7.70;99.90
20459;DHT22;10388;52.314;7.938;2022-12-29T19:24:44;7.70;99.90
20459;DHT22;10388;52.314;7.938;2022-12-29T19:27:14;7.70;99.90
20459;DHT22;10388;52.314;7.938;2022-12-29T19:29:45;7.70;99.90
20459;DHT22;10388;52.314;7.938;2022-12-29T19:32:16;7.70;99.90
20459;DHT22;10388;52.314;7.938;2022-12-29T19:34:46;7.60;99.90
20459;DHT22;10388;52.314;7.938;2022-12-29T19:37:18;7.50;99.90
20459;DHT22;10388;52.314;7.938;2022-12-29T19:39:48;7.40;99.90
20459;DHT22;10388;52.314;7.938;2022-12-29T19:42:19;7.40;99.90
20459;DHT22;10388;52.314;7.938;2022-12-29T19:44:49;7.40;99.90
20459;DHT22;10388;52.314;7.938;2022-12-29T19:47:20;7.40;99.90
20459;DHT22;10388;52.314;7.938;2022-12-29T19:49:50;7.30;99.90
20459;DHT22;10388;52.314;7.938;2022-12-29T19:52:21;7.30;99.90
20459;DHT22;10388;52.314;7.938;2022-12-29T19:54:52;7.30;99.90
20459;DHT22;10388;52.314;7.938;2022-12-29T19:57:22;7.20;99.90
20459;DHT22;10388;52.314;7.938;2022-12-29T19:59:54;7.20;99.90
20459;DHT22;10388;52.314;7.938;2022-12-29T20:02:27;7.20;99.90
20459;DHT22;10388;52.314;7.938;2022-12-29T20:04:57;7.20;99.90
20459;DHT22;10388;52.314;7.938;2022-12-29T20:07:28;7.20;99.90
20459;DHT22;10388;52.314;7.938;2022-12-29T20:09:59;7.20;99.90
20459;DHT22;10388;52.314;7.938;2022-12-29T20:12:29;7.30;99.90
20459;DHT22;10388;52.314;7.938;2022-12-29T20:15:00;7.30;99.90